hero-logo

Top 15 Knowers of CBS Cbs Corp-Class B Non Voting - 2017-07-25

Rank Fund Result (K)
1 Bowen Hanes Co Inc $1,262
2 Colony Group Llc $700
3 Hutchin Hill Capital Lp $588
4 Ahl Partners Llp $580
5 Dorsal Capital Management Llc $574
6 Gotham Asset Management Llc $547
7 Segall Bryant Hamill Llc $533
8 Rothschild Asset Management Inc $511
9 Jacobs Levy Equity Management Inc $399
10 Moore Capital Management Lp $286
11 Fdo Partners Llc $231
12 Stifel Financial Corp $174
13 Northwestern Mutual Investment Management Company Llc $173
14 Insight Capital Research Management Inc $149
15 Jane Street Group Llc $145
Price Chart and News From Google Finance for CBS Cbs Corp-Class B Non Voting
Owner Date Shares Change Price Change Result (K)
Acrospire Investment Management Llc 2017-03-31 -1,700 $5.74 $-9
Advantage Investment Management Llc 2017-03-31 0 $5.74 $0
Ahl Partners Llp 2017-03-31 101,143 $5.74 $580
Allsquare Wealth Management Llc 2017-03-31 0 $5.74 $0
Amalgamated Bank 2017-03-31 -13,810 $5.74 $-79
American Trust Investment Advisors Llc 2017-03-31 -620 $5.74 $-3
Ancora Advisors Llc 2017-03-31 -150 $5.74 $0
Aperio Group Llc 2017-03-31 1,207 $5.74 $6
Archford Capital Strategies Llc 2017-03-31 -458 $5.74 $-2
A R T Advisors Llc 2017-03-31 -51,300 $5.74 $-294
Asset Management Group Inc 2017-03-31 17 $5.74 $0
Assetmark Inc 2017-03-31 33 $5.74 $0
Balentine Llc 2017-03-31 0 $5.74 $0
Beacon Financial Group 2017-06-30 -1,485 $-5.58 $8
Bedell Frazier Investment Counseling Llc 2017-03-31 -60,160 $5.74 $-345
Birmingham Capital Management Co Inc Al 2017-03-31 -400 $5.74 $-2
Blair William Co Il 2017-03-31 4,142 $5.74 $23
Bokf Na 2017-03-31 -353 $5.74 $-2
Boston Private Wealth Llc 2017-03-31 1,309 $5.74 $7
Bowen Hanes Co Inc 2017-03-31 220,000 $5.74 $1,262
Bowling Portfolio Management Llc 2017-03-31 -30,817 $5.74 $-176
Bragg Financial Advisors Inc 2017-03-31 -5,669 $5.74 $-32
Bridgeway Capital Management Inc 2017-03-31 -27,300 $5.74 $-156
Brinker Capital Inc 2017-03-31 2,931 $5.74 $16
Brown Brothers Harriman Co 2017-03-31 1,264 $5.74 $7
California State Teachers Retirement System 2017-03-31 -73,500 $5.74 $-421
Cambria Investment Management L P 2017-03-31 356 $5.74 $2
Capital Guardian Trust Co 2017-03-31 -5,100 $5.74 $-29
Capital International Inc Ca 2017-03-31 0 $5.74 $0
Capital International Ltd Ca 2017-03-31 9,000 $5.74 $51
Capital International Sarl 2017-03-31 -6,600 $5.74 $-37
Carlson Capital L P 2017-03-31 -124,800 $5.74 $-716
Chartwell Investment Partners Llc 2017-03-31 0 $5.74 $0
Chieftain Capital Management Inc 2017-03-31 -1,246,867 $5.74 $-7,157
Colony Group Llc 2017-03-31 122,036 $5.74 $700
Cornerstone Capital Management Holdings Llc 2017-03-31 -18,592 $5.74 $-106
Cs Mckee Lp 2017-03-31 -45,350 $5.74 $-260
D A Davidson Co 2017-03-31 -8,980 $5.74 $-51
Dana Investment Advisors Inc 2017-03-31 -13,046 $5.74 $-74
Davidson Investment Advisors 2017-03-31 0 $5.74 $0
Davy Asset Management Ltd 2017-03-31 -17,659 $5.74 $-101
Delphi Management Inc Ma 2017-03-31 -116 $5.74 $0
Dorsal Capital Management Llc 2017-03-31 100,000 $5.74 $574
Earnest Partners Llc 2017-03-31 -189 $5.74 $-1
Edmond De Rothschild Holding S A 2017-03-31 0 $5.74 $0
Envestnet Asset Management Inc 2017-03-31 -35,429 $5.74 $-203
Estabrook Capital Management 2017-03-31 0 $5.74 $0
Fdo Partners Llc 2017-03-31 40,365 $5.74 $231
Fdx Advisors Inc 2017-03-31 -416 $5.74 $-2
First Pacific Advisors Llc 2017-03-31 0 $5.74 $0
First Republic Investment Management Inc 2017-03-31 4,506 $5.74 $25
Focused Wealth Management Inc 2017-03-31 0 $5.74 $0
Glen Harbor Capital Management Llc 2017-03-31 836 $5.74 $4
Glg Llc 2017-03-31 -165 $5.74 $0
Godshalk Welsh Capital Management Inc 2017-03-31 0 $5.74 $0
Gotham Asset Management Llc 2017-03-31 95,304 $5.74 $547
Green Square Capital Llc 2017-03-31 -680 $5.74 $-3
Gsa Capital Partners Llp 2017-03-31 -22,646 $5.74 $-129
Gsb Wealth Management Llc 2017-03-31 12 $5.74 $0
Guggenheim Capital Llc 2017-03-31 22,522 $5.74 $129
Hbk Sorce Advisory Llc 2017-03-31 1,290 $5.74 $7
Highbridge Capital Management Llc 2017-03-31 -35,481 $5.74 $-203
Highlander Capital Management Llc 2017-03-31 1,200 $5.74 $6
Highvista Strategies Llc 2017-03-31 -47,700 $5.74 $-273
Horizon Investment Services Llc 2017-03-31 5,745 $5.74 $32
Horizon Kinetics Llc 2017-03-31 -5,213 $5.74 $-29
Hrs Investment Holdings Llc 2017-03-31 0 $5.74 $0
Hutchin Hill Capital Lp 2017-03-31 102,500 $5.74 $588
Ibex Wealth Advisors 2017-03-31 -80 $5.74 $0
Ifp Advisors Inc 2017-03-31 -1,097 $5.74 $-6
Iht Wealth Management Llc 2017-03-31 -190 $5.74 $-1
Insight Capital Research Management Inc 2017-03-31 26,069 $5.74 $149
Intact Investment Management Inc 2017-03-31 -4,400 $5.74 $-25
Intellectus Partners Llc 2017-03-31 210 $5.74 $1
Invictus Rg 2017-03-31 -1,839 $5.74 $-10
Israel Discount Bank Of New York 2017-03-31 -2,290 $5.74 $-13
Itau Unibanco Holding S A 2017-03-31 -920 $5.74 $-5
Jacobs Levy Equity Management Inc 2017-03-31 69,629 $5.74 $399
Jane Street Group Llc 2017-03-31 25,360 $5.74 $145
Kentucky Retirement Systems 2017-03-31 -4,598 $5.74 $-26
Kentucky Retirement Systems Insurance Trust Fund 2017-03-31 -2,634 $5.74 $-15
Kovitz Investment Group Partners Llc 2017-03-31 12,238 $5.74 $70
Krilogy Financial Llc 2017-03-31 0 $5.74 $0
Ksa Capital Management Llc 2017-03-31 5,000 $5.74 $28
Ladenburg Thalmann Financial Services Inc 2017-03-31 -9,143 $5.74 $-52
Lebenthal Asset Management Llc 2017-03-31 -86 $5.74 $0
Lenox Wealth Management Inc 2017-03-31 -376 $5.74 $-2
Logan Capital Management Inc 2017-03-31 -4,598 $5.74 $-26
Madison Investment Holdings Inc 2017-03-31 0 $5.74 $0
Marathon Trading Investment Management Llc 2017-03-31 5,800 $5.74 $33
Marco Investment Management Llc 2017-03-31 -17,199 $5.74 $-98
Mariner Wealth Advisors Llc 2017-03-31 0 $5.74 $0
Mason Street Advisors Llc 2017-03-31 -2,221 $5.74 $-12
Meadow Creek Investment Management Llc 2017-03-31 1,292 $5.74 $7
Moloney Securities Asset Management Llc 2017-03-31 -16 $5.74 $0
Moneta Group Investment Advisors Llc 2017-03-31 665 $5.74 $3
Monroe Bank Trust Mi 2017-03-31 -80 $5.74 $0
Moore Capital Management Lp 2017-03-31 49,993 $5.74 $286
Neuburgh Advisers Llc 2017-03-31 608 $5.74 $3
New York Life Trust Co 2017-03-31 -121 $5.74 $0
Northwestern Mutual Investment Management Company Llc 2017-03-31 30,174 $5.74 $173
Northwestern Mutual Wealth Management Co 2017-03-31 -12,843 $5.74 $-73
Oskie Capital Management Llc 2017-03-31 1,012 $5.74 $5
Pacific Center For Financial Services 2017-03-31 0 $5.74 $0
Paloma Partners Management Co 2017-03-31 -29,988 $5.74 $-172
Perella Weinberg Partners Capital Management Lp 2017-03-31 -18,099 $5.74 $-103
Perigon Wealth Management Llc 2017-03-31 0 $5.74 $0
Piedmont Investment Advisors Llc 2017-03-31 -3,437 $5.74 $-19
Pinkerton Retirement Specialists Llc 2017-03-31 -25 $5.74 $0
Proficio Capital Partners Llc 2017-03-31 421 $5.74 $2
Public Employees Retirement System Of Ohio 2017-03-31 -9,861 $5.74 $-56
Raine Capital Llc 2017-03-31 5,000 $5.74 $28
Raymond James Associates 2017-03-31 -1,137 $5.74 $-6
Redwood Investments Llc 2017-03-31 -56,068 $5.74 $-321
Riverhead Capital Management Llc 2017-03-31 754 $5.74 $4
Rocky Mountain Advisers Llc 2017-03-31 0 $5.74 $0
Rothschild Asset Management Inc 2017-03-31 89,132 $5.74 $511
Round Hill Asset Management 2017-03-31 -1,775 $5.74 $-10
Salem Investment Counselors Inc 2017-03-31 0 $5.74 $0
Schonfeld Strategic Advisors Llc 2017-03-31 -26,682 $5.74 $-153
Segall Bryant Hamill Llc 2017-03-31 92,897 $5.74 $533
Seven Eight Capital Lp 2017-03-31 -6,700 $5.74 $-38
Shapiro Capital Management Llc 2017-03-31 -61,749 $5.74 $-354
Silvercrest Asset Management Group Llc 2017-03-31 -449 $5.74 $-2
Sowell Financial Services Llc 2017-03-31 -1,776 $5.74 $-10
Srs Capital Advisors Inc 2017-03-31 0 $5.74 $0
Steinberg Global Asset Management 2017-03-31 -120 $5.74 $0
Sterling Capital Management Llc 2017-03-31 -372,422 $5.74 $-2,137
Stifel Financial Corp 2017-03-31 30,447 $5.74 $174
Tortoise Investment Management Llc 2017-03-31 0 $5.74 $0
Tremblant Capital Group 2017-03-31 -739,717 $5.74 $-4,245
Two Sigma Securities Llc 2017-03-31 -3,303 $5.74 $-18
United Capital Financial Advisers Llc 2017-03-31 -30,951 $5.74 $-177
Usa Financial Portformulas Corp 2017-03-31 -44,715 $5.74 $-256
Veritable L P 2017-03-31 -1,748 $5.74 $-10
Verition Fund Management Llc 2017-03-31 -6,050 $5.74 $-34
Vestor Capital Llc 2017-03-31 385 $5.74 $2
Voloridge Investment Management Llc 2017-03-31 -47,064 $5.74 $-270
Wafra Investment Advisory Group Inc Ny 2017-03-31 0 $5.74 $0
Wallace Capital Management Inc 2017-03-31 -197 $5.74 $-1
Walleye Trading Llc 2017-03-31 -42,897 $5.74 $-246
Wasatch Advisors Inc 2017-03-31 -5,000 $5.74 $-28
Wbi Investments Inc 2017-03-31 1,452 $5.74 $8
Webster Bank N A 2017-03-31 0 $5.74 $0
Wexford Capital Lp 2017-03-31 15,100 $5.74 $86
Yorkbridge Wealth Partners Llc 2017-03-31 105 $5.74 $0
Zuckerman Investment Group Llc 2017-03-31 -62,709 $5.74 $-359